Time;durP1;ratioP1;P1;durP2;ratioP2;P2;SDS_P1;SDS_P2;PMS_P1;PMS_P2;Temp;Humidity;BMP_temperature;BMP_pressure;BME280_temperature;BME280_humidity;BME280_pressure;Samples;Min_cycle;Max_cycle;Signal;HPM_P1;HPM_P2
2021/03/11 00:05:16;;;;;;;21.35;5.68;;;6.60;99.90;;;;;;10170159;29;20106;-78
2021/03/11 00:10:37;;;;;;;14.95;5.45;;;6.70;99.90;;;;;;10164068;29;20040;-78
2021/03/11 00:15:59;;;;;;;16.30;4.57;;;6.70;99.90;;;;;;10177466;29;20041;-78
2021/03/11 00:21:20;;;;;;;15.55;5.28;;;6.80;99.90;;;;;;10139559;29;20059;-78
2021/03/11 00:26:41;;;;;;;12.95;4.53;;;6.90;99.90;;;;;;10157263;29;20032;-78
2021/03/11 00:32:02;;;;;;;14.00;5.25;;;6.90;99.90;;;;;;10168983;29;20036;-78
2021/03/11 00:37:23;;;;;;;16.25;4.05;;;6.90;99.90;;;;;;10178820;28;20068;-78
2021/03/11 00:42:45;;;;;;;13.00;4.50;;;7.00;99.90;;;;;;10171262;29;20115;-78
2021/03/11 00:48:06;;;;;;;9.25;3.83;;;7.00;99.90;;;;;;10192782;28;20055;-78
2021/03/11 00:53:27;;;;;;;10.60;4.05;;;7.10;99.90;;;;;;10173411;29;22210;-77
2021/03/11 00:58:48;;;;;;;12.57;4.00;;;7.10;99.90;;;;;;10171741;29;20047;-78
2021/03/11 01:04:09;;;;;;;13.65;4.80;;;7.00;99.90;;;;;;10166054;29;20044;-78
2021/03/11 01:09:31;;;;;;;12.52;4.22;;;7.10;99.90;;;;;;10160013;29;20458;-78
2021/03/11 01:14:52;;;;;;;12.35;4.38;;;7.20;99.90;;;;;;10178186;29;20040;-78
2021/03/11 01:20:17;;;;;;;10.00;3.25;;;7.20;99.90;;;;;;10172616;29;20068;-78
2021/03/11 01:25:38;;;;;;;13.07;4.38;;;7.30;99.90;;;;;;10188323;28;20499;-78
2021/03/11 01:30:59;;;;;;;15.65;4.82;;;7.30;99.90;;;;;;10186305;28;20411;-78
2021/03/11 01:36:20;;;;;;;8.05;3.22;;;7.30;99.90;;;;;;10163972;29;20047;-78
2021/03/11 01:41:41;;;;;;;17.08;5.10;;;7.30;99.90;;;;;;10191162;29;20040;-78
2021/03/11 01:47:02;;;;;;;10.25;3.88;;;7.40;99.90;;;;;;10163291;29;20078;-78
2021/03/11 01:52:23;;;;;;;11.15;4.03;;;7.50;99.90;;;;;;10168641;29;20032;-77
2021/03/11 01:57:47;;;;;;;12.15;4.05;;;7.50;99.90;;;;;;10165819;29;20051;-78
2021/03/11 02:03:08;;;;;;;7.80;3.63;;;7.50;99.90;;;;;;10174336;29;20040;-78
2021/03/11 02:08:29;;;;;;;11.32;4.32;;;7.60;99.90;;;;;;10188831;29;20040;-77
2021/03/11 02:14:05;;;;;;;11.07;4.10;;;7.70;99.90;;;;;;10161521;29;20032;-78
2021/03/11 02:19:54;;;;;;;11.38;4.70;;;7.70;99.90;;;;;;10181993;29;20055;-78
2021/03/11 02:25:33;;;;;;;9.60;3.67;;;7.80;99.90;;;;;;10189097;29;20056;-78
2021/03/11 02:30:56;;;;;;;10.87;4.70;;;7.80;99.90;;;;;;10188623;29;20039;-78
2021/03/11 02:36:18;;;;;;;10.05;3.72;;;7.80;99.90;;;;;;10158820;29;20293;-78
2021/03/11 02:41:40;;;;;;;10.35;3.55;;;7.80;99.90;;;;;;10182566;28;20044;-78
2021/03/11 02:47:02;;;;;;;10.88;4.78;;;7.90;99.90;;;;;;10171660;29;20496;-78
2021/03/11 02:52:24;;;;;;;8.73;3.65;;;7.90;99.90;;;;;;10163163;29;20039;-75
2021/03/11 02:57:46;;;;;;;11.00;4.13;;;8.00;99.90;;;;;;10162335;29;20044;-75
2021/03/11 03:03:12;;;;;;;9.00;4.03;;;8.00;99.90;;;;;;10166464;28;20127;-75
2021/03/11 03:08:34;;;;;;;10.05;4.07;;;8.10;99.90;;;;;;10176492;28;20038;-76
2021/03/11 03:13:56;;;;;;;11.48;3.80;;;8.10;99.90;;;;;;10189116;29;20036;-78
2021/03/11 03:19:18;;;;;;;10.93;3.97;;;8.20;99.90;;;;;;10187603;28;20048;-78
2021/03/11 03:24:40;;;;;;;15.43;4.95;;;8.30;99.90;;;;;;10170141;29;20029;-78
2021/03/11 03:30:10;;;;;;;18.25;4.35;;;8.40;99.90;;;;;;10177467;29;20028;-78
2021/03/11 03:35:31;;;;;;;9.10;3.65;;;8.30;99.90;;;;;;10185559;28;20048;-78
2021/03/11 03:40:52;;;;;;;12.57;3.65;;;8.40;99.90;;;;;;10172742;29;20036;-77
2021/03/11 03:46:14;;;;;;;9.63;4.38;;;8.50;99.90;;;;;;10176262;29;20552;-78
2021/03/11 03:51:39;;;;;;;9.38;3.58;;;8.50;99.90;;;;;;10172199;29;20165;-77
2021/03/11 03:57:16;;;;;;;11.35;4.43;;;8.70;99.90;;;;;;10172397;29;20099;-76
2021/03/11 04:02:37;;;;;;;10.10;3.17;;;8.80;99.90;;;;;;10171483;29;20701;-78
2021/03/11 04:07:59;;;;;;;12.23;2.58;;;8.90;99.90;;;;;;10171902;28;20123;-78
2021/03/11 04:13:22;;;;;;;9.38;2.72;;;9.00;99.90;;;;;;10168933;28;20035;-78
2021/03/11 04:18:44;;;;;;;8.95;3.10;;;9.20;99.90;;;;;;10188629;28;20093;-78
2021/03/11 04:24:06;;;;;;;7.55;2.25;;;9.30;99.90;;;;;;10169724;29;20099;-78
2021/03/11 04:29:28;;;;;;;7.57;2.72;;;9.40;99.90;;;;;;10178809;29;20044;-75
2021/03/11 04:34:49;;;;;;;8.57;2.22;;;9.50;99.90;;;;;;10192307;28;20074;-75
2021/03/11 04:40:11;;;;;;;7.60;2.45;;;9.50;99.90;;;;;;10180545;29;20103;-75
2021/03/11 04:45:32;;;;;;;5.57;2.00;;;9.50;99.90;;;;;;10191011;29;20056;-77
2021/03/11 04:50:54;;;;;;;6.30;2.15;;;9.40;99.90;;;;;;10181566;28;20094;-77
2021/03/11 04:56:15;;;;;;;7.07;2.38;;;9.50;99.90;;;;;;10179565;29;20066;-77
2021/03/11 05:01:40;;;;;;;7.50;1.80;;;9.40;99.90;;;;;;10176555;29;20040;-77
2021/03/11 05:07:01;;;;;;;4.05;1.90;;;9.40;99.90;;;;;;10191231;29;20105;-77
2021/03/11 05:12:23;;;;;;;6.35;2.47;;;9.40;99.90;;;;;;10169260;29;20043;-78
2021/03/11 05:17:44;;;;;;;6.28;2.22;;;9.40;99.90;;;;;;10180392;29;20401;-78
2021/03/11 05:23:05;;;;;;;6.32;2.17;;;9.40;99.90;;;;;;10179803;29;20039;-78
2021/03/11 05:28:26;;;;;;;4.25;1.42;;;9.40;99.90;;;;;;10178184;29;20043;-78
2021/03/11 05:33:47;;;;;;;5.10;2.20;;;9.50;99.90;;;;;;10168564;29;20039;-78
2021/03/11 05:39:08;;;;;;;9.98;2.35;;;9.60;99.90;;;;;;10164817;29;20500;-78
2021/03/11 05:44:30;;;;;;;3.00;1.10;;;9.60;99.90;;;;;;10178528;29;20070;-78
2021/03/11 05:49:52;;;;;;;6.13;1.63;;;9.60;99.90;;;;;;10177821;29;20035;-78
2021/03/11 05:55:13;;;;;;;8.40;1.42;;;9.80;99.90;;;;;;10177018;29;20036;-78
2021/03/11 06:00:35;;;;;;;4.93;1.58;;;9.70;99.90;;;;;;10179831;29;20043;-78
2021/03/11 06:06:00;;;;;;;5.68;1.75;;;9.70;99.90;;;;;;10186126;28;20083;-78
2021/03/11 06:11:24;;;;;;;7.30;2.80;;;9.90;99.90;;;;;;10179273;28;20024;-79
2021/03/11 06:17:00;;;;;;;5.93;1.52;;;9.90;99.90;;;;;;10180822;29;20047;-78
2021/03/11 06:22:21;;;;;;;3.47;1.58;;;10.10;99.90;;;;;;10174949;29;20036;-78
2021/03/11 06:27:42;;;;;;;3.65;1.60;;;10.20;99.90;;;;;;10165009;29;20042;-78
2021/03/11 06:33:05;;;;;;;4.07;1.27;;;10.20;99.90;;;;;;10177392;29;20083;-78
2021/03/11 06:38:27;;;;;;;2.83;1.15;;;10.30;99.90;;;;;;10175825;29;20040;-77
2021/03/11 06:43:59;;;;;;;1.77;0.80;;;10.40;99.90;;;;;;10179414;29;20032;-78
2021/03/11 06:49:20;;;;;;;3.65;1.10;;;10.40;99.90;;;;;;10186083;29;20048;-78
2021/03/11 06:55:03;;;;;;;4.00;1.20;;;10.50;99.90;;;;;;10160753;29;20051;-77
2021/03/11 07:00:24;;;;;;;3.72;0.90;;;10.60;99.90;;;;;;10173756;29;20048;-78
2021/03/11 07:05:46;;;;;;;2.17;0.60;;;10.60;99.90;;;;;;10172774;29;20040;-78
2021/03/11 07:11:07;;;;;;;20.58;1.95;;;10.70;99.90;;;;;;10178690;29;20115;-78
2021/03/11 07:16:32;;;;;;;4.63;1.25;;;10.70;99.90;;;;;;10165908;29;20681;-77
2021/03/11 07:21:54;;;;;;;3.22;1.33;;;10.70;99.90;;;;;;10171510;29;20040;-77
2021/03/11 07:27:15;;;;;;;2.95;0.82;;;10.70;99.90;;;;;;10158287;29;20031;-78
2021/03/11 07:32:36;;;;;;;6.00;1.33;;;10.90;99.90;;;;;;10159422;29;20039;-78
2021/03/11 07:38:00;;;;;;;4.05;0.70;;;10.90;99.90;;;;;;10163986;29;20036;-78
2021/03/11 07:43:22;;;;;;;3.05;0.90;;;10.90;99.90;;;;;;10183579;29;20118;-78
2021/03/11 07:48:43;;;;;;;12.20;2.28;;;10.90;99.90;;;;;;10126556;29;20046;-78
2021/03/11 07:54:05;;;;;;;11.05;1.73;;;10.80;99.90;;;;;;10122147;29;20043;-78
2021/03/11 07:59:26;;;;;;;19.40;1.77;;;10.90;99.90;;;;;;10112375;29;20047;-78
2021/03/11 08:04:48;;;;;;;10.55;2.13;;;11.00;99.90;;;;;;10139629;29;20536;-78
2021/03/11 08:10:20;;;;;;;7.15;0.85;;;11.10;99.90;;;;;;10117679;29;20059;-78
2021/03/11 08:15:41;;;;;;;5.10;1.45;;;11.10;99.90;;;;;;10133066;29;20040;-78
2021/03/11 08:21:04;;;;;;;3.83;0.98;;;11.30;99.90;;;;;;10125971;29;20033;-78
2021/03/11 08:26:37;;;;;;;5.30;1.60;;;11.30;99.90;;;;;;10146137;29;20087;-78
2021/03/11 08:31:58;;;;;;;5.60;1.00;;;11.40;99.90;;;;;;10145274;28;20511;-78
2021/03/11 08:37:22;;;;;;;5.45;1.20;;;11.40;99.90;;;;;;10121986;29;20109;-78
2021/03/11 08:42:45;;;;;;;5.85;2.63;;;11.40;99.90;;;;;;10135615;29;20381;-78
2021/03/11 08:48:23;;;;;;;4.45;0.85;;;11.50;99.90;;;;;;10176941;29;20055;-78
2021/03/11 08:53:46;;;;;;;12.50;1.42;;;11.50;99.90;;;;;;10181343;29;20032;-77
2021/03/11 08:59:08;;;;;;;12.10;1.73;;;11.70;99.90;;;;;;10178109;29;20040;-78
2021/03/11 09:04:32;;;;;;;8.05;1.90;;;11.80;99.90;;;;;;10170723;29;20132;-78
2021/03/11 09:09:53;;;;;;;5.45;1.48;;;11.80;99.90;;;;;;10190162;29;20054;-78
2021/03/11 09:15:13;;;;;;;4.72;1.52;;;11.70;99.90;;;;;;10189143;29;20143;-78
2021/03/11 09:20:34;;;;;;;8.77;1.67;;;11.70;99.90;;;;;;10167045;29;20128;-78
2021/03/11 09:25:55;;;;;;;8.75;1.27;;;11.70;99.90;;;;;;10169179;29;20039;-78
2021/03/11 09:31:29;;;;;;;11.70;1.92;;;11.70;99.90;;;;;;10163379;29;20121;-79
2021/03/11 09:36:50;;;;;;;19.00;2.30;;;11.80;99.90;;;;;;10162654;29;20051;-78
2021/03/11 09:42:11;;;;;;;10.23;1.27;;;12.00;99.90;;;;;;10164226;28;20040;-78
2021/03/11 09:47:32;;;;;;;7.00;1.38;;;11.90;99.90;;;;;;10170463;29;20044;-78
2021/03/11 09:52:54;;;;;;;15.88;2.38;;;11.90;99.90;;;;;;10159077;29;20039;-78
2021/03/11 09:58:20;;;;;;;5.55;1.52;;;11.80;99.90;;;;;;10164834;29;20051;-78
2021/03/11 10:03:41;;;;;;;7.00;1.38;;;11.80;99.90;;;;;;10170029;29;20044;-77
2021/03/11 10:09:03;;;;;;;11.95;1.27;;;11.60;99.90;;;;;;10172883;29;20650;-79
2021/03/11 10:14:29;;;;;;;9.00;2.03;;;11.60;99.90;;;;;;10188791;29;20032;-78
2021/03/11 10:19:50;;;;;;;8.63;1.08;;;11.70;99.90;;;;;;10158331;29;20024;-78
2021/03/11 10:25:18;;;;;;;14.57;2.20;;;11.70;99.90;;;;;;10171538;29;20058;-78
2021/03/11 10:30:40;;;;;;;8.43;1.58;;;11.80;99.90;;;;;;10173511;29;20110;-78
2021/03/11 10:36:12;;;;;;;12.20;2.13;;;11.80;99.90;;;;;;10175745;28;20036;-78
2021/03/11 10:41:35;;;;;;;6.65;1.80;;;11.70;99.90;;;;;;10185911;29;20553;-78
2021/03/11 10:47:16;;;;;;;14.55;1.88;;;11.80;99.90;;;;;;10172370;29;20047;-78
2021/03/11 10:52:51;;;;;;;7.72;1.30;;;11.70;99.90;;;;;;10182887;29;20063;-78
2021/03/11 10:58:26;;;;;;;6.55;1.25;;;11.60;99.90;;;;;;10186010;28;20044;-78
2021/03/11 11:03:47;;;;;;;9.50;1.42;;;11.40;99.90;;;;;;10185366;29;20071;-78
2021/03/11 11:09:08;;;;;;;7.28;1.27;;;11.20;99.90;;;;;;10173421;29;20072;-78
2021/03/11 11:14:29;;;;;;;5.20;1.25;;;10.60;99.90;;;;;;10175847;28;20036;-79
2021/03/11 11:19:50;;;;;;;9.38;1.45;;;10.60;99.90;;;;;;10162397;29;20044;-78
2021/03/11 11:25:12;;;;;;;15.95;2.97;;;10.90;99.90;;;;;;10173269;28;20062;-78
2021/03/11 11:30:33;;;;;;;10.25;1.50;;;11.20;99.90;;;;;;10164342;29;20118;-78
2021/03/11 11:35:54;;;;;;;11.80;1.95;;;11.40;99.90;;;;;;10184627;29;20067;-78
2021/03/11 11:41:16;;;;;;;7.60;1.80;;;11.70;99.90;;;;;;10186133;28;20040;-78
2021/03/11 11:46:38;;;;;;;6.88;0.90;;;12.00;99.90;;;;;;10191710;23;20146;-53
2021/03/11 11:51:59;;;;;;;7.10;2.33;;;12.40;99.90;;;;;;10191735;29;20036;-54
2021/03/11 11:57:20;;;;;;;11.55;1.67;;;12.40;99.90;;;;;;10201884;28;20047;-53
2021/03/11 12:02:41;;;;;;;5.85;2.05;;;12.00;99.90;;;;;;10205605;29;20573;-53
2021/03/11 12:08:02;;;;;;;4.55;2.05;;;12.10;99.90;;;;;;10200570;29;20047;-54
2021/03/11 12:13:23;;;;;;;7.63;1.38;;;12.30;99.90;;;;;;10199266;29;20483;-53
2021/03/11 12:18:44;;;;;;;6.93;1.83;;;12.30;99.90;;;;;;10203130;29;20054;-53
2021/03/11 12:24:05;;;;;;;9.05;2.80;;;12.10;99.90;;;;;;10201890;29;20047;-53
2021/03/11 12:29:26;;;;;;;9.48;1.73;;;12.10;99.90;;;;;;10202597;28;20035;-54
2021/03/11 12:34:48;;;;;;;13.40;1.63;;;12.10;99.90;;;;;;10209806;28;20072;-53
2021/03/11 12:40:10;;;;;;;4.07;0.70;;;12.40;99.90;;;;;;10211601;29;20725;-54
2021/03/11 12:45:31;;;;;;;6.20;0.70;;;12.30;99.90;;;;;;10209143;28;20075;-53
2021/03/11 12:50:53;;;;;;;7.45;0.85;;;13.10;99.90;;;;;;10208579;28;20039;-53
2021/03/11 12:56:14;;;;;;;6.90;1.77;;;13.50;99.90;;;;;;10209722;28;20051;-53
2021/03/11 13:01:35;;;;;;;2.97;0.82;;;13.80;99.90;;;;;;10209263;29;20087;-54
2021/03/11 13:06:56;;;;;;;8.38;0.90;;;13.50;99.90;;;;;;10198027;29;20094;-53
2021/03/11 13:12:17;;;;;;;8.10;0.90;;;12.90;99.90;;;;;;10206504;28;20047;-53
2021/03/11 13:17:38;;;;;;;8.45;1.10;;;12.10;99.90;;;;;;10209247;28;20483;-53
2021/03/11 13:22:59;;;;;;;4.18;1.75;;;11.80;99.90;;;;;;10210224;28;20047;-53
2021/03/11 13:28:20;;;;;;;4.30;1.05;;;11.60;99.90;;;;;;10205069;29;20406;-53
2021/03/11 13:33:41;;;;;;;7.05;1.02;;;11.20;99.90;;;;;;10207172;29;20054;-52
2021/03/11 13:39:03;;;;;;;7.88;1.40;;;10.90;99.90;;;;;;10210837;28;20054;-53
2021/03/11 13:44:24;;;;;;;1.88;0.55;;;11.00;99.90;;;;;;10206844;28;20067;-52
2021/03/11 13:49:45;;;;;;;6.43;0.80;;;11.40;99.90;;;;;;10210552;28;20060;-52
2021/03/11 13:55:08;;;;;;;4.68;0.82;;;12.90;99.90;;;;;;10207088;28;20059;-52
2021/03/11 14:00:29;;;;;;;4.78;0.98;;;12.60;99.90;;;;;;10202844;28;20442;-53
2021/03/11 14:05:50;;;;;;;6.60;0.68;;;11.70;99.90;;;;;;10209645;29;20040;-53
2021/03/11 14:11:11;;;;;;;1.98;0.28;;;11.40;99.90;;;;;;10208925;29;20289;-52
2021/03/11 14:16:32;;;;;;;7.78;2.25;;;11.30;99.90;;;;;;10206208;28;20138;-52
2021/03/11 14:21:54;;;;;;;2.00;0.85;;;11.20;99.90;;;;;;10207702;28;20666;-52
2021/03/11 14:27:15;;;;;;;10.55;1.52;;;11.30;99.90;;;;;;10206270;29;20443;-52
2021/03/11 14:32:36;;;;;;;3.53;1.02;;;12.20;99.90;;;;;;10211157;28;20047;-52
2021/03/11 14:37:57;;;;;;;7.20;1.25;;;12.20;99.90;;;;;;10206377;29;20039;-52
2021/03/11 14:43:18;;;;;;;9.45;1.23;;;11.70;99.90;;;;;;10207109;28;20043;-52
2021/03/11 14:48:39;;;;;;;10.02;1.15;;;11.40;99.90;;;;;;10206498;28;20046;-52
2021/03/11 14:54:00;;;;;;;11.23;2.08;;;11.30;99.90;;;;;;10207699;28;20047;-52
2021/03/11 14:59:21;;;;;;;15.48;2.17;;;11.10;99.90;;;;;;10204097;29;20048;-52
2021/03/11 15:04:43;;;;;;;3.83;1.20;;;11.10;99.90;;;;;;10206614;29;20042;-52
2021/03/11 15:10:06;;;;;;;9.88;0.90;;;11.20;99.90;;;;;;10197619;28;20039;-52
2021/03/11 15:15:30;;;;;;;5.03;0.88;;;11.30;99.90;;;;;;10186614;29;20051;-52
2021/03/11 15:20:51;;;;;;;7.53;1.63;;;11.30;99.90;;;;;;10203907;28;20526;-52
2021/03/11 15:26:13;;;;;;;4.30;0.45;;;11.60;99.90;;;;;;10206189;29;20049;-52
2021/03/11 15:31:34;;;;;;;4.97;0.77;;;11.30;99.90;;;;;;10208051;29;20433;-52
2021/03/11 15:36:55;;;;;;;5.40;0.60;;;11.10;99.90;;;;;;10205391;28;20051;-52
2021/03/11 15:42:16;;;;;;;7.85;0.73;;;10.90;99.90;;;;;;10195545;29;20039;-52
2021/03/11 15:47:37;;;;;;;4.82;0.85;;;10.70;99.90;;;;;;10202469;28;20565;-52
2021/03/11 15:52:59;;;;;;;7.38;1.13;;;10.70;99.90;;;;;;10206593;29;20050;-51
2021/03/11 15:58:20;;;;;;;7.43;1.05;;;10.60;99.90;;;;;;10202578;28;20043;-52
2021/03/11 16:03:41;;;;;;;8.85;1.58;;;10.60;99.90;;;;;;10201410;28;20066;-52
2021/03/11 16:09:02;;;;;;;2.20;0.70;;;10.70;99.90;;;;;;10206350;29;20044;-52
2021/03/11 16:14:23;;;;;;;5.45;1.20;;;10.60;99.90;;;;;;10199339;29;20047;-51
2021/03/11 16:19:44;;;;;;;9.32;1.52;;;10.50;99.90;;;;;;10205324;29;20682;-51
2021/03/11 16:25:06;;;;;;;0.60;0.20;;;10.30;99.90;;;;;;10203043;29;20040;-52
2021/03/11 16:30:27;;;;;;;2.95;0.50;;;10.30;99.90;;;;;;10203142;28;20527;-51
2021/03/11 16:35:48;;;;;;;6.63;0.73;;;10.20;99.90;;;;;;10199642;28;20040;-51
2021/03/11 16:41:09;;;;;;;4.85;0.50;;;10.20;99.90;;;;;;10198752;28;20057;-51
2021/03/11 16:46:30;;;;;;;1.50;0.40;;;10.20;99.90;;;;;;10201768;28;20043;-51
2021/03/11 16:51:51;;;;;;;3.60;0.93;;;10.20;99.90;;;;;;10189345;29;20062;-51
2021/03/11 16:57:12;;;;;;;2.10;0.50;;;10.00;99.90;;;;;;10198622;28;20419;-51
2021/03/11 17:02:34;;;;;;;1.73;0.63;;;9.60;99.90;;;;;;10200650;29;20042;-51
2021/03/11 17:07:55;;;;;;;1.77;0.30;;;9.50;99.90;;;;;;10203818;28;20456;-51
2021/03/11 17:13:16;;;;;;;22.90;2.28;;;9.50;99.90;;;;;;10204425;29;20163;-51
2021/03/11 17:18:37;;;;;;;3.08;0.40;;;9.50;99.90;;;;;;10205958;28;20047;-51
2021/03/11 17:23:58;;;;;;;3.05;0.50;;;9.40;99.90;;;;;;10207163;28;20396;-51
2021/03/11 17:29:19;;;;;;;1.85;0.38;;;9.30;99.90;;;;;;10208303;28;20460;-51
2021/03/11 17:34:40;;;;;;;6.85;1.50;;;9.20;99.90;;;;;;10212651;29;20043;-51
2021/03/11 17:40:02;;;;;;;5.50;1.30;;;9.30;99.90;;;;;;10205298;28;20058;-51
2021/03/11 17:45:23;;;;;;;3.33;1.25;;;9.20;99.90;;;;;;10209377;28;20477;-51
2021/03/11 17:50:44;;;;;;;6.10;1.38;;;9.30;99.90;;;;;;10204406;28;20054;-51
2021/03/11 17:56:06;;;;;;;8.13;1.45;;;9.20;99.90;;;;;;10206519;28;20039;-51
2021/03/11 18:01:27;;;;;;;1.77;0.63;;;9.10;99.90;;;;;;10200137;28;20399;-52
2021/03/11 18:06:47;;;;;;;1.80;0.63;;;9.10;99.90;;;;;;10203550;28;20108;-51
2021/03/11 18:12:09;;;;;;;3.30;1.15;;;9.00;99.90;;;;;;10201413;28;20036;-51
2021/03/11 18:17:30;;;;;;;4.55;0.60;;;9.00;99.90;;;;;;10204347;28;20091;-51
2021/03/11 18:22:52;;;;;;;6.90;0.70;;;9.10;99.90;;;;;;10206784;28;20514;-51
2021/03/11 18:28:13;;;;;;;7.25;0.77;;;9.00;99.90;;;;;;10204914;28;20063;-51
2021/03/11 18:33:34;;;;;;;1.25;0.68;;;9.00;99.90;;;;;;10208067;28;20047;-51
2021/03/11 18:38:55;;;;;;;4.32;1.10;;;9.00;99.90;;;;;;10205287;28;20131;-51
2021/03/11 18:44:16;;;;;;;3.17;0.80;;;9.00;99.90;;;;;;10198580;28;20051;-51
2021/03/11 18:49:38;;;;;;;4.22;0.32;;;9.00;99.90;;;;;;10196567;28;20035;-51
2021/03/11 18:54:59;;;;;;;5.68;1.38;;;8.90;99.90;;;;;;10197695;28;20069;-51
2021/03/11 19:00:29;;;;;;;0.73;0.38;;;8.90;99.90;;;;;;10201911;28;20158;-51
2021/03/11 19:05:50;;;;;;;3.03;0.43;;;8.80;99.90;;;;;;10202022;28;20392;-51
2021/03/11 19:11:11;;;;;;;0.57;0.32;;;8.80;99.90;;;;;;10176644;28;20147;-51
2021/03/11 19:16:32;;;;;;;5.65;0.55;;;8.80;99.90;;;;;;10185665;28;20039;-51
2021/03/11 19:21:53;;;;;;;1.73;0.90;;;8.70;99.90;;;;;;10189559;28;20227;-51
2021/03/11 19:27:14;;;;;;;1.10;0.40;;;8.70;99.90;;;;;;10180880;28;20035;-51
2021/03/11 19:32:36;;;;;;;4.95;0.20;;;8.60;99.90;;;;;;10187183;28;20709;-51
2021/03/11 19:37:58;;;;;;;0.35;0.20;;;8.50;99.90;;;;;;10191566;28;20504;-51
2021/03/11 19:43:23;;;;;;;1.17;0.20;;;8.50;99.90;;;;;;10185177;28;20151;-51
2021/03/11 19:48:44;;;;;;;0.47;0.47;;;8.40;99.90;;;;;;10184618;28;20075;-51
2021/03/11 19:54:05;;;;;;;0.28;0.10;;;8.40;99.90;;;;;;10189481;28;20346;-51
2021/03/11 19:59:26;;;;;;;0.73;0.17;;;8.30;99.90;;;;;;10190309;28;20051;-51
2021/03/11 20:04:47;;;;;;;0.50;0.20;;;8.20;99.90;;;;;;10188221;28;20040;-51
2021/03/11 20:10:11;;;;;;;0.00;0.00;;;8.30;99.90;;;;;;10181549;28;20046;-51
2021/03/11 20:15:33;;;;;;;5.32;1.85;;;8.20;99.90;;;;;;10181909;28;20051;-51
2021/03/11 20:20:54;;;;;;;1.17;0.50;;;8.20;99.90;;;;;;10187585;28;20480;-51
2021/03/11 20:26:15;;;;;;;1.75;0.22;;;8.10;99.90;;;;;;10188521;28;20527;-51
2021/03/11 20:31:36;;;;;;;0.38;0.15;;;8.10;99.90;;;;;;10185848;28;20458;-51
2021/03/11 20:36:57;;;;;;;3.17;0.20;;;8.00;99.90;;;;;;10187813;28;20070;-50
2021/03/11 20:42:18;;;;;;;2.30;0.65;;;7.90;99.90;;;;;;10186467;28;20051;-50
2021/03/11 20:47:40;;;;;;;2.95;0.73;;;7.90;99.90;;;;;;10185838;28;20402;-50
2021/03/11 20:53:01;;;;;;;0.08;0.08;;;7.90;99.90;;;;;;10197113;28;20546;-51
2021/03/11 20:58:22;;;;;;;0.63;0.17;;;7.90;99.90;;;;;;10196028;28;20059;-50
2021/03/11 21:03:43;;;;;;;2.92;0.30;;;8.00;99.90;;;;;;10200739;28;20042;-50
2021/03/11 21:09:05;;;;;;;1.90;0.50;;;7.90;99.90;;;;;;10178638;28;20078;-50
2021/03/11 21:14:26;;;;;;;2.05;0.60;;;7.70;99.90;;;;;;10190982;28;20043;-50
2021/03/11 21:19:46;;;;;;;2.42;0.30;;;7.80;99.90;;;;;;10190094;28;20495;-50
2021/03/11 21:25:10;;;;;;;4.60;0.20;;;7.80;99.90;;;;;;10189147;28;20447;-51
2021/03/11 21:30:31;;;;;;;1.00;0.32;;;8.00;99.90;;;;;;10189287;28;20043;-51
2021/03/11 21:35:52;;;;;;;2.42;1.05;;;8.00;99.90;;;;;;10187481;28;20347;-51
2021/03/11 21:41:14;;;;;;;3.58;0.38;;;7.90;99.90;;;;;;10191291;28;20412;-51
2021/03/11 21:46:36;;;;;;;5.20;0.85;;;7.90;99.90;;;;;;10193693;28;20043;-51
2021/03/11 21:51:57;;;;;;;1.20;0.32;;;8.00;99.90;;;;;;10194877;28;20039;-51
2021/03/11 21:57:18;;;;;;;3.45;0.40;;;7.90;99.90;;;;;;10188301;28;20039;-51
2021/03/11 22:02:40;;;;;;;4.20;1.67;;;7.90;99.90;;;;;;10192532;28;20047;-51
2021/03/11 22:08:04;;;;;;;0.65;0.40;;;7.90;99.90;;;;;;10187588;28;20043;-51
2021/03/11 22:13:25;;;;;;;1.35;0.30;;;7.80;99.90;;;;;;10186780;28;20487;-51
2021/03/11 22:18:46;;;;;;;4.45;0.80;;;7.90;99.90;;;;;;10189586;28;20090;-51
2021/03/11 22:24:07;;;;;;;0.10;0.10;;;7.90;99.90;;;;;;10191963;28;20583;-50
2021/03/11 22:29:28;;;;;;;4.10;0.93;;;7.80;99.90;;;;;;10189364;28;20272;-50
2021/03/11 22:34:49;;;;;;;1.40;0.20;;;7.90;99.90;;;;;;10193174;28;20048;-51
2021/03/11 22:40:11;;;;;;;2.83;0.38;;;7.90;99.90;;;;;;10199301;28;20040;-51
2021/03/11 22:45:32;;;;;;;1.30;0.40;;;8.00;99.90;;;;;;10203182;28;20352;-51
2021/03/11 22:50:53;;;;;;;0.88;0.20;;;7.90;99.90;;;;;;10201567;28;20047;-51
2021/03/11 22:56:15;;;;;;;1.23;0.60;;;7.70;99.90;;;;;;10197638;28;20522;-51
2021/03/11 23:01:36;;;;;;;2.85;1.08;;;7.70;99.90;;;;;;10201425;28;20053;-51
2021/03/11 23:06:57;;;;;;;1.23;1.13;;;7.70;99.90;;;;;;10196981;28;20528;-51
2021/03/11 23:12:18;;;;;;;0.43;0.10;;;7.70;99.90;;;;;;10197906;28;20118;-51
2021/03/11 23:17:41;;;;;;;1.85;0.20;;;7.70;99.90;;;;;;10203528;28;20086;-51
2021/03/11 23:23:06;;;;;;;6.43;0.93;;;7.80;99.90;;;;;;10203378;28;20115;-51
2021/03/11 23:28:27;;;;;;;3.85;0.70;;;7.70;99.90;;;;;;10201104;28;20035;-51
2021/03/11 23:33:48;;;;;;;1.05;0.20;;;7.60;99.90;;;;;;10204088;28;20048;-51
2021/03/11 23:39:09;;;;;;;0.35;0.30;;;7.70;99.90;;;;;;10199711;28;20051;-51
2021/03/11 23:44:29;;;;;;;2.58;0.32;;;7.70;99.90;;;;;;10201626;28;20655;-51
2021/03/11 23:49:50;;;;;;;0.40;0.20;;;7.70;99.90;;;;;;10203927;28;20578;-51
2021/03/11 23:55:12;;;;;;;0.65;0.55;;;7.70;99.90;;;;;;10203080;28;20047;-51
